Time;durP1;ratioP1;P1;durP2;ratioP2;P2;SDS_P1;SDS_P2;PMS_P1;PMS_P2;Temp;Humidity;BMP_temperature;BMP_pressure;BME280_temperature;BME280_humidity;BME280_pressure;Samples;Min_cycle;Max_cycle;Signal;HPM_P1;HPM_P2
2021/07/13 00:00:14;;;;;;;9.35;4.80;;;;;;;26.76;48.26;100589.81;5048545;28;20076;-68
2021/07/13 00:02:45;;;;;;;9.50;4.75;;;;;;;26.71;48.09;100581.06;5049771;28;20118;-68
2021/07/13 00:05:14;;;;;;;14.85;5.25;;;;;;;26.71;48.25;100586.50;5048547;28;20033;-68
2021/07/13 00:07:43;;;;;;;12.27;5.80;;;;;;;26.72;47.96;100589.09;5031750;28;20506;-68
2021/07/13 00:10:15;;;;;;;10.77;5.20;;;;;;;26.66;48.35;100588.53;5048557;28;20098;-68
2021/07/13 00:12:45;;;;;;;14.52;5.35;;;;;;;26.63;48.20;100584.19;5048293;28;20044;-68
2021/07/13 00:15:14;;;;;;;9.70;4.90;;;;;;;26.56;48.08;100585.47;5048743;28;20047;-68
2021/07/13 00:17:46;;;;;;;10.50;5.20;;;;;;;26.54;48.51;100579.25;5048756;28;20440;-68
2021/07/13 00:20:14;;;;;;;8.02;4.78;;;;;;;26.55;48.08;100583.72;5048820;28;20049;-68
2021/07/13 00:22:43;;;;;;;9.93;5.07;;;;;;;26.57;47.89;100593.53;5052381;28;20033;-69
2021/07/13 00:25:12;;;;;;;8.50;4.95;;;;;;;26.53;48.04;100585.63;5035629;28;20037;-68
2021/07/13 00:27:40;;;;;;;8.55;4.70;;;;;;;26.52;47.94;100582.03;5052814;28;20080;-69
2021/07/13 00:30:11;;;;;;;9.63;4.68;;;;;;;26.52;48.17;100586.56;5053099;28;20124;-68
2021/07/13 00:32:40;;;;;;;8.77;5.20;;;;;;;26.51;47.74;100580.31;5052959;28;20061;-68
2021/07/13 00:35:11;;;;;;;15.27;5.78;;;;;;;26.47;47.90;100583.25;5051756;28;20033;-68
2021/07/13 00:37:48;;;;;;;11.90;5.20;;;;;;;26.45;47.93;100582.47;5052833;28;20057;-68
2021/07/13 00:40:18;;;;;;;9.18;5.10;;;;;;;26.38;47.98;100579.22;5052181;28;20056;-68
2021/07/13 00:42:47;;;;;;;13.27;5.22;;;;;;;26.35;48.03;100578.47;5053864;28;20068;-68
2021/07/13 00:45:16;;;;;;;8.73;4.75;;;;;;;26.39;47.47;100580.94;5053707;28;20120;-68
2021/07/13 00:47:47;;;;;;;10.52;4.78;;;;;;;26.43;47.25;100578.94;5051280;28;20068;-68
2021/07/13 00:50:21;;;;;;;9.60;5.57;;;;;;;26.43;47.51;100584.38;5053213;28;20116;-69
2021/07/13 00:52:52;;;;;;;;;;;;;;;26.38;47.37;100590.03;5053458;28;20056;-68
2021/07/13 00:55:21;;;;;;;11.45;5.28;;;;;;;26.39;47.42;100578.22;5052848;28;20011;-68
2021/07/13 00:57:48;;;;;;;11.85;4.82;;;;;;;26.43;47.46;100587.06;5052478;28;20048;-68
2021/07/13 01:00:19;;;;;;;9.93;5.03;;;;;;;26.44;47.28;100583.41;5052292;28;20069;-68
2021/07/13 01:02:50;;;;;;;7.32;4.28;;;;;;;26.49;47.13;100574.09;5050466;28;20127;-69
2021/07/13 01:05:25;;;;;;;8.75;4.65;;;;;;;26.47;47.21;100575.13;5051520;28;20124;-68
2021/07/13 01:08:04;;;;;;;7.55;4.22;;;;;;;26.48;47.26;100580.47;5033522;28;20124;-68
2021/07/13 01:10:42;;;;;;;8.80;4.68;;;;;;;26.44;47.54;100565.34;5048767;28;20135;-67
2021/07/13 01:13:21;;;;;;;13.60;4.65;;;;;;;26.44;47.79;100567.16;5051891;28;20123;-68
2021/07/13 01:15:53;;;;;;;11.95;4.55;;;;;;;26.39;47.93;100571.94;5052520;28;20448;-68
2021/07/13 01:18:27;;;;;;;8.88;5.40;;;;;;;26.39;48.13;100569.22;5052792;28;20055;-68
2021/07/13 01:21:36;;;;;;;8.93;4.07;;;;;;;26.39;47.49;100569.22;5052917;28;20045;-68
2021/07/13 01:24:24;;;;;;;11.98;4.85;;;;;;;26.38;47.96;100571.09;5027079;28;20052;-68
2021/07/13 01:27:12;;;;;;;14.05;4.72;;;;;;;26.33;47.48;100574.97;5042957;28;20136;-69
2021/07/13 01:29:45;;;;;;;8.73;5.13;;;;;;;26.36;47.39;100567.56;5051779;28;20052;-68
2021/07/13 01:32:23;;;;;;;8.20;4.20;;;;;;;26.40;47.58;100569.16;5051015;28;20489;-68
2021/07/13 01:34:59;;;;;;;11.65;4.60;;;;;;;26.40;47.36;100570.97;5051713;28;20452;-68
2021/07/13 01:37:30;;;;;;;15.43;5.20;;;;;;;26.38;47.28;100584.63;5032993;28;20045;-69
2021/07/13 01:40:03;;;;;;;10.20;4.50;;;;;;;26.37;47.74;100573.88;5050338;28;20052;-68
2021/07/13 01:42:31;;;;;;;9.85;4.55;;;;;;;26.35;47.17;100578.47;5052038;28;20048;-68
2021/07/13 01:45:02;;;;;;;7.78;4.05;;;;;;;26.31;47.12;100575.06;5052741;28;20091;-68
2021/07/13 01:47:30;;;;;;;11.10;5.22;;;;;;;26.29;47.69;100585.09;5052611;28;20434;-68
2021/07/13 01:49:59;;;;;;;11.52;4.70;;;;;;;26.22;47.38;100586.31;5051728;28;20040;-67
2021/07/13 01:52:29;;;;;;;8.45;4.20;;;;;;;26.27;46.67;100592.41;5029028;28;20098;-68
2021/07/13 01:54:58;;;;;;;9.23;4.43;;;;;;;26.28;46.52;100577.91;5052647;28;20041;-67
2021/07/13 01:57:30;;;;;;;7.53;5.28;;;;;;;26.29;46.33;100576.09;5051094;28;20059;-68
2021/07/13 02:00:01;;;;;;;8.98;4.07;;;;;;;26.23;46.88;100585.38;5051101;28;20037;-68
2021/07/13 02:02:31;;;;;;;12.15;4.40;;;;;;;26.22;46.98;100585.44;5050038;28;20136;-69
2021/07/13 02:05:00;;;;;;;7.80;4.55;;;;;;;26.17;46.88;100583.00;5050566;28;20037;-68
2021/07/13 02:07:31;;;;;;;10.52;4.80;;;;;;;26.14;46.88;100584.00;5051252;28;20125;-68
2021/07/13 02:10:01;;;;;;;11.35;4.95;;;;;;;26.16;46.76;100584.81;5051744;28;20059;-69
2021/07/13 02:12:29;;;;;;;8.65;4.70;;;;;;;26.17;46.77;100586.56;5051335;28;20555;-68
2021/07/13 02:14:56;;;;;;;9.20;4.28;;;;;;;26.14;46.82;100583.13;5051740;28;20124;-68
2021/07/13 02:17:31;;;;;;;9.05;4.25;;;;;;;26.11;46.58;100588.72;5052082;28;20118;-69
2021/07/13 02:20:01;;;;;;;11.63;4.55;;;;;;;26.08;46.73;100594.28;5051797;28;20044;-68
2021/07/13 02:22:30;;;;;;;8.38;4.25;;;;;;;26.04;47.06;100588.16;5050279;28;20168;-68
2021/07/13 02:24:58;;;;;;;9.85;4.80;;;;;;;26.02;47.02;100589.19;5033478;28;20045;-68
2021/07/13 02:27:30;;;;;;;7.82;4.53;;;;;;;26.03;47.03;100588.22;5050812;28;20045;-68
2021/07/13 02:30:00;;;;;;;10.35;4.53;;;;;;;26.02;46.53;100584.66;5051354;28;20045;-68
2021/07/13 02:32:34;;;;;;;10.32;4.57;;;;;;;26.01;46.70;100580.19;5033694;28;20502;-68
2021/07/13 02:35:04;;;;;;;9.05;4.20;;;;;;;25.96;46.66;100593.06;5051341;28;20053;-67
2021/07/13 02:37:33;;;;;;;9.35;4.55;;;;;;;25.95;46.54;100585.91;5052395;28;20107;-67
2021/07/13 02:40:05;;;;;;;8.75;4.30;;;;;;;25.95;46.37;100590.44;5051719;28;20131;-68
2021/07/13 02:42:33;;;;;;;11.25;4.80;;;;;;;25.94;46.50;100592.28;5050052;28;20132;-67
2021/07/13 02:45:01;;;;;;;10.43;4.45;;;;;;;25.93;46.48;100587.81;5050787;28;20551;-68
2021/07/13 02:47:31;;;;;;;8.63;4.57;;;;;;;25.92;46.05;100583.38;5033720;28;20084;-68
2021/07/13 02:50:03;;;;;;;10.90;4.38;;;;;;;25.97;45.83;100584.00;5050863;28;20132;-68
2021/07/13 02:52:32;;;;;;;12.07;4.70;;;;;;;25.98;45.43;100574.94;5033613;28;20487;-68
2021/07/13 02:55:04;;;;;;;9.43;4.63;;;;;;;25.96;45.47;100582.25;5051021;28;20498;-67
2021/07/13 02:57:33;;;;;;;6.93;3.97;;;;;;;25.93;45.46;100576.13;5050776;28;20040;-67
2021/07/13 03:00:03;;;;;;;10.18;4.85;;;;;;;25.88;45.52;100572.75;5051232;28;20103;-68
2021/07/13 03:02:32;;;;;;;9.63;4.50;;;;;;;25.88;45.59;100573.66;5050467;28;20037;-68
2021/07/13 03:05:01;;;;;;;9.13;4.38;;;;;;;25.90;45.19;100573.56;5051068;28;20428;-68
2021/07/13 03:07:30;;;;;;;9.52;4.90;;;;;;;25.91;45.12;100573.50;5051009;28;20052;-68
2021/07/13 03:10:00;;;;;;;10.85;4.57;;;;;;;25.89;45.39;100579.94;5051114;28;20116;-68
2021/07/13 03:12:28;;;;;;;15.63;4.72;;;;;;;25.91;44.86;100578.91;5049595;28;20045;-68
2021/07/13 03:14:59;;;;;;;12.35;4.25;;;;;;;25.98;44.74;100591.19;5050440;28;20045;-68
2021/07/13 03:17:27;;;;;;;10.60;4.90;;;;;;;25.98;44.39;100580.34;5050766;28;20152;-68
2021/07/13 03:19:59;;;;;;;7.95;4.43;;;;;;;26.08;44.68;100586.16;5049525;28;20068;-68
2021/07/13 03:22:30;;;;;;;10.63;4.40;;;;;;;26.10;44.36;100585.13;5050307;28;20087;-68
2021/07/13 03:25:01;;;;;;;6.78;3.80;;;;;;;26.09;44.64;100575.25;5050390;28;20055;-68
2021/07/13 03:27:34;;;;;;;13.50;4.57;;;;;;;26.12;44.95;100576.94;5041345;28;20493;-68
2021/07/13 03:30:06;;;;;;;7.43;3.80;;;;;;;26.17;45.11;100581.16;5039415;28;20047;-67
2021/07/13 03:32:36;;;;;;;9.90;4.15;;;;;;;26.27;44.68;100580.69;5050253;28;20052;-67
2021/07/13 03:35:08;;;;;;;6.82;3.90;;;;;;;26.38;44.57;100581.03;5050571;28;20053;-68
2021/07/13 03:37:36;;;;;;;9.23;3.85;;;;;;;26.48;44.77;100580.47;5049914;28;20033;-67
2021/07/13 03:40:06;;;;;;;7.45;4.07;;;;;;;26.64;44.51;100587.78;5050554;28;20466;-68
2021/07/13 03:42:34;;;;;;;6.93;4.28;;;;;;;26.76;44.85;100579.84;5049765;28;20033;-67
2021/07/13 03:45:02;;;;;;;7.93;3.80;;;;;;;26.88;44.82;100579.19;5048704;28;20129;-67
2021/07/13 03:47:33;;;;;;;8.25;4.00;;;;;;;27.01;44.75;100581.25;5050306;28;20039;-68
2021/07/13 03:50:02;;;;;;;6.47;3.53;;;;;;;27.14;44.48;100569.66;5050245;28;20106;-68
2021/07/13 03:52:31;;;;;;;5.78;3.72;;;;;;;27.27;44.38;100580.66;5049399;28;20397;-68
2021/07/13 03:54:59;;;;;;;6.45;3.75;;;;;;;27.37;44.33;100573.78;5050704;28;20552;-68
2021/07/13 03:57:26;;;;;;;7.38;3.60;;;;;;;27.53;43.71;100580.09;5049155;28;20045;-68
2021/07/13 03:59:54;;;;;;;6.57;3.75;;;;;;;27.66;43.98;100577.53;5049464;28;20558;-68
2021/07/13 04:02:22;;;;;;;11.57;3.95;;;;;;;27.80;43.21;100577.63;5050400;28;20078;-67
2021/07/13 04:04:49;;;;;;;8.27;3.80;;;;;;;27.94;43.25;100565.94;5049689;28;20124;-68
2021/07/13 04:07:17;;;;;;;7.55;3.97;;;;;;;28.10;43.62;100564.06;5031715;28;20116;-68
2021/07/13 04:09:46;;;;;;;8.82;4.05;;;;;;;28.25;43.17;100576.75;5049570;28;20112;-68
2021/07/13 04:12:14;;;;;;;10.73;4.07;;;;;;;28.37;43.08;100567.84;5049310;28;20041;-68
2021/07/13 04:14:41;;;;;;;8.25;3.95;;;;;;;28.52;42.62;100568.75;5050075;28;20037;-68
2021/07/13 04:17:10;;;;;;;7.07;3.40;;;;;;;28.67;41.69;100566.94;5049571;28;20144;-68
2021/07/13 04:19:37;;;;;;;8.32;3.75;;;;;;;28.78;41.31;100569.88;5050213;28;20052;-68
2021/07/13 04:22:08;;;;;;;6.90;3.53;;;;;;;28.91;41.35;100570.84;5049084;28;20124;-68
2021/07/13 04:24:36;;;;;;;7.43;3.80;;;;;;;29.09;40.95;100566.06;5049221;28;20126;-67
2021/07/13 04:27:20;;;;;;;6.97;3.88;;;;;;;29.26;40.63;100572.19;5048916;28;20037;-68
2021/07/13 04:29:48;;;;;;;10.02;3.35;;;;;;;29.43;40.63;100575.66;5049876;28;20058;-68
2021/07/13 04:32:15;;;;;;;9.25;4.80;;;;;;;29.60;40.33;100576.28;5049248;28;20454;-69
2021/07/13 04:34:44;;;;;;;7.25;3.97;;;;;;;29.78;39.93;100579.66;5032184;28;20127;-68
2021/07/13 04:37:12;;;;;;;7.05;3.70;;;;;;;29.95;39.94;100573.09;5048584;28;20044;-68
2021/07/13 04:39:40;;;;;;;8.10;3.85;;;;;;;30.12;39.14;100572.84;5049147;28;20045;-69
2021/07/13 04:42:10;;;;;;;9.43;3.90;;;;;;;30.36;38.74;100568.41;5031829;28;20041;-68
2021/07/13 04:44:38;;;;;;;7.93;3.42;;;;;;;30.58;38.36;100575.13;5031531;28;20112;-69
2021/07/13 04:47:05;;;;;;;7.85;3.50;;;;;;;30.80;37.93;100581.66;5047441;28;20123;-68
2021/07/13 04:49:33;;;;;;;6.00;3.60;;;;;;;31.03;37.46;100584.59;5049308;28;20084;-67
2021/07/13 04:52:03;;;;;;;7.55;3.53;;;;;;;31.22;36.22;100574.13;5049799;28;20053;-68
2021/07/13 04:54:33;;;;;;;5.53;3.45;;;;;;;31.33;35.95;100571.47;5047320;28;20033;-69
2021/07/13 04:57:01;;;;;;;10.30;4.00;;;;;;;31.52;35.42;100584.59;5047733;28;20128;-69
2021/07/13 04:59:33;;;;;;;8.88;3.60;;;;;;;31.71;34.97;100581.41;5049899;28;20131;-69
2021/07/13 05:02:01;;;;;;;6.07;3.95;;;;;;;31.90;35.15;100588.09;5048878;28;20447;-69
2021/07/13 05:04:29;;;;;;;9.30;3.80;;;;;;;32.18;34.49;100595.09;5049795;28;20048;-69
2021/07/13 05:06:58;;;;;;;6.07;3.55;;;;;;;32.44;33.81;100580.25;5048856;28;20048;-69
2021/07/13 05:09:26;;;;;;;7.53;3.55;;;;;;;32.62;33.75;100590.75;5050467;28;20044;-69
2021/07/13 05:11:54;;;;;;;7.32;3.42;;;;;;;32.83;33.82;100584.47;5053237;28;20052;-69
2021/07/13 05:14:22;;;;;;;9.30;3.40;;;;;;;33.00;33.32;100596.81;5052408;28;20525;-69
2021/07/13 05:16:51;;;;;;;6.88;3.25;;;;;;;33.25;32.86;100603.06;5036080;28;20049;-68
2021/07/13 05:19:19;;;;;;;10.63;3.33;;;;;;;33.21;32.62;100599.72;5051326;28;20048;-68
2021/07/13 05:21:50;;;;;;;6.95;3.80;;;;;;;33.29;32.67;100605.41;5050643;28;20548;-69
2021/07/13 05:24:18;;;;;;;7.63;3.65;;;;;;;33.55;32.97;100603.25;5052049;28;20045;-69
2021/07/13 05:26:49;;;;;;;7.60;4.05;;;;;;;33.62;33.23;100609.97;5045232;28;20490;-69
2021/07/13 05:29:18;;;;;;;7.20;3.40;;;;;;;33.79;32.99;100601.28;5034229;28;20045;-68
2021/07/13 05:31:48;;;;;;;7.43;3.47;;;;;;;33.98;33.03;100604.19;5050725;28;20033;-69
2021/07/13 05:34:18;;;;;;;7.35;4.00;;;;;;;34.21;32.89;100612.31;5051143;28;20124;-69
2021/07/13 05:36:46;;;;;;;7.22;3.70;;;;;;;34.28;33.03;100606.22;5048242;28;20052;-69
2021/07/13 05:39:14;;;;;;;7.82;3.80;;;;;;;34.40;32.67;100609.75;5051959;28;20060;-68
2021/07/13 05:41:44;;;;;;;5.72;3.88;;;;;;;34.50;32.98;100607.97;5051409;28;20041;-65
2021/07/13 05:44:12;;;;;;;6.72;3.45;;;;;;;34.65;32.43;100609.41;5047972;28;20037;-68
2021/07/13 05:46:40;;;;;;;7.55;3.80;;;;;;;34.81;32.76;100600.69;5051732;28;20129;-68
2021/07/13 05:49:07;;;;;;;7.60;3.78;;;;;;;34.97;32.03;100611.19;5048816;28;20065;-68
2021/07/13 05:51:36;;;;;;;6.50;3.50;;;;;;;34.91;32.46;100604.38;5051683;28;20120;-67
2021/07/13 05:54:04;;;;;;;10.43;4.28;;;;;;;34.96;32.00;100610.31;5054424;28;20110;-68
2021/07/13 05:56:33;;;;;;;8.93;4.07;;;;;;;35.02;32.07;100601.53;5052207;28;20048;-69
2021/07/13 05:59:04;;;;;;;7.35;4.00;;;;;;;35.15;32.04;100613.16;5050645;28;20048;-69
2021/07/13 06:01:32;;;;;;;10.27;3.75;;;;;;;35.19;31.76;100603.63;5047183;28;20041;-68
2021/07/13 06:03:59;;;;;;;11.07;4.30;;;;;;;35.16;31.91;100600.31;5051111;28;20124;-69
2021/07/13 06:06:28;;;;;;;7.68;4.10;;;;;;;35.36;31.58;100610.41;5046620;28;20043;-69
2021/07/13 06:08:57;;;;;;;8.63;3.90;;;;;;;35.70;31.54;100608.22;5047898;28;20044;-69
2021/07/13 06:11:26;;;;;;;7.30;3.85;;;;;;;36.03;31.14;100611.59;5046451;28;20120;-69
2021/07/13 06:13:54;;;;;;;6.07;3.88;;;;;;;36.21;30.70;100613.53;5047930;28;20102;-70
2021/07/13 06:16:23;;;;;;;5.47;3.72;;;;;;;36.21;30.59;100610.78;5016839;22;20316;-65
2021/07/13 06:18:52;;;;;;;9.43;4.20;;;;;;;36.03;30.53;100604.22;5004882;28;20049;-65
2021/07/13 06:21:24;;;;;;;8.02;4.13;;;;;;;35.99;30.42;100621.13;5008334;28;20140;-65
2021/07/13 06:23:53;;;;;;;5.82;3.92;;;;;;;36.28;30.36;100609.19;5009107;28;20192;-65
2021/07/13 06:26:23;;;;;;;7.75;3.88;;;;;;;36.57;30.01;100614.63;5010789;28;20140;-65
2021/07/13 06:28:51;;;;;;;7.97;3.70;;;;;;;36.55;30.22;100613.06;5011022;28;20117;-65
2021/07/13 06:31:18;;;;;;;10.25;3.85;;;;;;;36.52;30.42;100616.09;5011058;28;20415;-65
2021/07/13 06:33:46;;;;;;;10.45;4.35;;;;;;;36.68;30.25;100624.66;5009498;28;20063;-65
2021/07/13 06:36:13;;;;;;;9.50;3.78;;;;;;;36.76;30.12;100626.69;5005562;28;20041;-65
2021/07/13 06:38:41;;;;;;;5.80;3.67;;;;;;;36.85;29.88;100632.16;5005082;28;20052;-65
2021/07/13 06:41:09;;;;;;;5.78;3.70;;;;;;;36.81;29.72;100627.09;5006757;28;20064;-64
2021/07/13 06:43:38;;;;;;;7.57;4.05;;;;;;;36.70;29.93;100631.75;5011412;28;20068;-64
2021/07/13 06:46:06;;;;;;;8.32;4.30;;;;;;;36.68;29.86;100624.66;5010874;28;20120;-65
2021/07/13 06:48:34;;;;;;;6.20;3.58;;;;;;;36.81;29.79;100633.47;5004436;28;20136;-65
2021/07/13 06:51:02;;;;;;;7.88;3.25;;;;;;;36.95;29.72;100630.28;5006274;28;21053;-65
2021/07/13 06:53:29;;;;;;;6.35;3.95;;;;;;;37.09;29.29;100626.13;5006686;28;20137;-65
2021/07/13 06:55:57;;;;;;;8.02;4.32;;;;;;;37.10;29.28;100625.13;5006529;28;20045;-65
2021/07/13 06:58:26;;;;;;;10.20;4.20;;;;;;;37.21;29.29;100625.00;5011140;28;20069;-65
2021/07/13 07:00:56;;;;;;;7.93;3.70;;;;;;;37.35;29.21;100618.13;5009420;28;20045;-66
2021/07/13 07:03:27;;;;;;;6.55;3.95;;;;;;;37.31;28.78;100613.91;5004462;28;20706;-64
2021/07/13 07:05:57;;;;;;;7.25;3.70;;;;;;;37.20;28.86;100617.75;5006306;28;21630;-64
2021/07/13 07:08:24;;;;;;;7.57;3.65;;;;;;;37.16;28.92;100626.44;5009512;28;20551;-65
2021/07/13 07:10:54;;;;;;;12.18;4.07;;;;;;;37.31;28.76;100616.69;5008796;28;20045;-65
2021/07/13 07:13:22;;;;;;;10.57;4.03;;;;;;;37.55;28.64;100622.50;5003357;28;20064;-65
2021/07/13 07:15:50;;;;;;;9.07;4.15;;;;;;;37.66;28.59;100605.81;5007039;28;20038;-64
2021/07/13 07:18:19;;;;;;;6.70;3.97;;;;;;;37.64;28.31;100616.09;5008863;28;20132;-65
2021/07/13 07:20:47;;;;;;;6.53;3.70;;;;;;;37.64;28.21;100612.47;5009455;28;20092;-65
2021/07/13 07:23:15;;;;;;;7.90;4.03;;;;;;;37.72;28.25;100607.94;5006983;28;20450;-65
2021/07/13 07:25:46;;;;;;;7.78;3.70;;;;;;;37.76;28.00;100614.00;4985318;28;20057;-65
2021/07/13 07:28:13;;;;;;;9.65;4.20;;;;;;;37.68;28.22;100608.41;5003289;28;20045;-64
2021/07/13 07:30:41;;;;;;;11.93;4.93;;;;;;;37.61;28.13;100613.66;5003758;28;20111;-64
2021/07/13 07:33:09;;;;;;;7.45;3.67;;;;;;;37.43;27.77;100608.06;5010520;28;20060;-65
2021/07/13 07:35:38;;;;;;;11.43;4.72;;;;;;;37.49;28.00;100623.09;5006334;28;20057;-65
2021/07/13 07:38:07;;;;;;;11.40;4.05;;;;;;;37.59;28.24;100621.22;5010034;28;20041;-65
2021/07/13 07:40:36;;;;;;;6.07;3.47;;;;;;;37.81;28.45;100606.97;5007277;28;20231;-64
2021/07/13 07:43:05;;;;;;;12.25;4.18;;;;;;;37.84;28.33;100605.81;5006690;28;20057;-65
2021/07/13 07:45:33;;;;;;;8.52;3.80;;;;;;;37.83;28.40;100613.22;5010822;28;20576;-65
2021/07/13 07:48:01;;;;;;;8.90;3.80;;;;;;;37.89;28.20;100611.72;5009321;28;20611;-65
2021/07/13 07:50:29;;;;;;;8.07;4.10;;;;;;;38.00;28.04;100605.13;5007214;28;20160;-65
2021/07/13 07:52:59;;;;;;;7.30;4.30;;;;;;;37.89;27.81;100615.34;5002778;28;20053;-64
2021/07/13 07:55:27;;;;;;;10.77;4.78;;;;;;;37.84;28.18;100608.56;5002257;28;20056;-64
2021/07/13 07:57:56;;;;;;;6.25;3.60;;;;;;;37.90;28.26;100608.81;5007340;28;20124;-64
2021/07/13 08:00:25;;;;;;;10.45;4.22;;;;;;;37.73;28.44;100604.16;5006127;28;20502;-65
2021/07/13 08:02:55;;;;;;;7.65;4.75;;;;;;;37.69;28.95;100608.22;5003730;28;20044;-64
2021/07/13 08:05:26;;;;;;;10.45;5.07;;;;;;;37.81;28.54;100595.13;5006302;28;20049;-64
2021/07/13 08:07:55;;;;;;;7.05;3.88;;;;;;;37.76;28.94;100602.97;5002705;28;20701;-65
2021/07/13 08:10:25;;;;;;;7.80;4.43;;;;;;;38.06;28.53;100599.03;5004110;28;20041;-65
2021/07/13 08:12:53;;;;;;;7.70;4.57;;;;;;;38.06;28.34;100596.28;5008414;28;20049;-64
2021/07/13 08:15:21;;;;;;;15.02;5.45;;;;;;;38.04;27.95;100601.06;5009801;28;20119;-65
2021/07/13 08:17:49;;;;;;;8.20;4.07;;;;;;;38.13;28.08;100600.13;5023226;28;20041;-64
2021/07/13 08:20:18;;;;;;;8.80;4.15;;;;;;;38.32;28.09;100601.84;5023591;28;20579;-65
2021/07/13 08:26:05;;;;;;;9.40;4.70;;;;;;;38.18;27.99;100604.16;4972709;28;20085;-69
2021/07/13 08:28:33;;;;;;;13.68;4.68;;;;;;;38.31;28.15;100600.97;4975650;28;20127;-69
2021/07/13 08:31:01;;;;;;;10.02;4.60;;;;;;;38.34;28.24;100603.41;4977843;28;20041;-68
2021/07/13 08:33:28;;;;;;;9.02;4.25;;;;;;;38.38;28.09;100598.47;4972565;28;20041;-69
2021/07/13 08:35:57;;;;;;;7.63;4.53;;;;;;;38.11;28.39;100599.41;4973879;28;20117;-69
2021/07/13 08:38:24;;;;;;;8.52;4.80;;;;;;;38.02;28.05;100597.56;4970816;28;20062;-69
2021/07/13 08:40:54;;;;;;;8.13;3.95;;;;;;;38.05;28.16;100613.84;4975311;28;20047;-68
2021/07/13 08:43:25;;;;;;;11.93;4.80;;;;;;;37.97;27.98;100616.47;4990042;28;20057;-68
2021/07/13 08:45:55;;;;;;;10.27;4.07;;;;;;;37.94;28.08;100611.28;4984784;28;20042;-68
2021/07/13 08:48:23;;;;;;;8.10;5.05;;;;;;;38.01;27.99;100612.41;4974198;28;20130;-68
2021/07/13 08:50:58;;;;;;;7.90;5.07;;;;;;;38.12;28.01;100607.53;4977303;28;20046;-66
2021/07/13 08:53:26;;;;;;;12.48;5.13;;;;;;;38.26;28.06;100617.16;4976040;28;20409;-69
2021/07/13 08:55:55;;;;;;;8.48;4.72;;;;;;;38.21;27.85;100608.47;4958756;28;20043;-69
2021/07/13 08:58:25;;;;;;;8.90;4.95;;;;;;;38.04;27.59;100614.84;4976537;28;20039;-69
2021/07/13 09:00:54;;;;;;;10.25;4.30;;;;;;;37.80;28.42;100621.81;4965203;28;20521;-69
2021/07/13 09:03:22;;;;;;;8.10;4.30;;;;;;;37.94;28.41;100616.78;4976712;28;20097;-68
2021/07/13 09:05:51;;;;;;;8.25;4.50;;;;;;;38.12;28.10;100612.19;4984115;28;20137;-69
2021/07/13 09:08:25;;;;;;;9.60;4.90;;;;;;;38.12;28.31;100604.78;4977106;28;20129;-69
2021/07/13 09:11:04;;;;;;;8.35;4.53;;;;;;;38.17;28.48;100609.81;4990139;28;20471;-68
2021/07/13 09:13:40;;;;;;;11.52;4.88;;;;;;;38.09;28.38;100610.59;4985300;28;20042;-68
2021/07/13 09:16:10;;;;;;;10.40;5.20;;;;;;;38.06;28.55;100601.78;4980890;28;20105;-69
2021/07/13 09:18:41;;;;;;;9.38;5.10;;;;;;;38.03;28.83;100600.19;4983076;28;20070;-67
2021/07/13 09:21:14;;;;;;;10.40;4.68;;;;;;;38.06;28.75;100605.41;4991191;28;20046;-68
2021/07/13 09:24:17;;;;;;;8.88;5.00;;;;;;;37.88;28.43;100610.84;4979892;28;20069;-68
2021/07/13 09:26:50;;;;;;;9.85;4.90;;;;;;;37.92;29.02;100619.69;4947616;28;20043;-69
2021/07/13 09:29:48;;;;;;;;;;;;;;;37.76;28.86;100625.03;4951816;28;20038;-69
2021/07/13 09:32:37;;;;;;;10.15;4.90;;;;;;;37.87;29.08;100619.31;4973649;28;19921;-68
2021/07/13 09:35:09;;;;;;;7.32;4.95;;;;;;;38.12;29.00;100618.56;4967823;28;20039;-68
2021/07/13 09:37:39;;;;;;;8.32;4.90;;;;;;;38.12;28.63;100613.06;4978598;28;20054;-68
2021/07/13 09:40:13;;;;;;;8.45;4.70;;;;;;;38.15;28.82;100617.38;4981239;28;20054;-68
2021/07/13 09:42:45;;;;;;;7.93;4.70;;;;;;;38.11;28.44;100614.06;4974055;28;20054;-68
2021/07/13 09:45:27;;;;;;;9.60;5.28;;;;;;;38.03;28.94;100622.25;4952803;28;20107;-69
2021/07/13 09:48:01;;;;;;;13.95;4.72;;;;;;;38.13;28.62;100609.28;4970668;28;20047;-69
2021/07/13 09:50:34;;;;;;;9.20;4.72;;;;;;;38.04;28.61;100603.81;4978534;28;20039;-69
2021/07/13 09:53:03;;;;;;;11.18;4.90;;;;;;;38.01;28.71;100604.13;4985161;28;20081;-69
2021/07/13 09:55:32;;;;;;;8.95;5.38;;;;;;;37.96;28.83;100611.97;4974898;28;20043;-69
2021/07/13 09:58:26;;;;;;;10.65;5.25;;;;;;;37.92;28.65;100603.16;4974204;28;20042;-68
2021/07/13 10:00:57;;;;;;;11.43;5.25;;;;;;;37.84;28.98;100601.19;4964056;28;20046;-69
2021/07/13 10:03:27;;;;;;;11.25;5.60;;;;;;;37.65;29.24;100595.78;4975261;28;20050;-68
2021/07/13 10:05:57;;;;;;;8.75;4.97;;;;;;;37.61;29.25;100599.03;4981674;28;20098;-68
2021/07/13 10:08:27;;;;;;;6.60;4.57;;;;;;;37.50;29.32;100591.78;4966508;28;20041;-68
2021/07/13 10:10:55;;;;;;;11.35;5.07;;;;;;;37.54;29.43;100598.72;4982829;28;22166;-68
2021/07/13 10:13:23;;;;;;;12.68;5.18;;;;;;;37.40;29.57;100605.63;4976062;28;20042;-68
2021/07/13 10:15:53;;;;;;;10.75;5.35;;;;;;;37.40;29.76;100607.50;4983747;28;20042;-68
2021/07/13 10:18:26;;;;;;;14.27;5.47;;;;;;;37.30;29.69;100614.94;4970860;28;20149;-68
2021/07/13 10:20:56;;;;;;;8.77;5.20;;;;;;;37.15;30.10;100608.22;4975468;28;20041;-68
2021/07/13 10:23:24;;;;;;;9.10;5.00;;;;;;;37.02;30.00;100608.50;4974954;28;20104;-68
2021/07/13 10:25:54;;;;;;;9.57;5.50;;;;;;;37.00;29.96;100594.88;4987037;28;20049;-68
2021/07/13 10:28:23;;;;;;;10.57;5.65;;;;;;;36.91;30.04;100601.28;4980662;28;20039;-68
2021/07/13 10:30:56;;;;;;;10.93;5.13;;;;;;;36.82;30.24;100601.31;4963788;28;20559;-68
2021/07/13 10:33:31;;;;;;;9.90;5.40;;;;;;;36.62;30.71;100592.22;4972029;28;20031;-68
2021/07/13 10:36:31;;;;;;;8.43;4.30;;;;;;;36.50;31.01;100596.09;4953333;28;20130;-68
2021/07/13 10:39:29;;;;;;;10.02;4.88;;;;;;;36.66;30.89;100601.94;4958259;28;20396;-68
2021/07/13 10:41:59;;;;;;;14.77;5.80;;;;;;;36.68;30.88;100588.91;4981631;28;20042;-67
2021/07/13 10:44:44;;;;;;;11.95;4.90;;;;;;;36.56;30.58;100595.56;4951754;29;20576;-68
2021/07/13 10:47:35;;;;;;;7.18;4.70;;;;;;;36.51;30.50;100593.22;4966889;28;20141;-68
2021/07/13 10:50:39;;;;;;;9.95;5.03;;;;;;;36.41;30.28;100588.75;4977869;28;20117;-68
2021/07/13 10:53:15;;;;;;;11.45;4.80;;;;;;;36.41;30.25;100577.75;4964594;28;20042;-67
2021/07/13 10:55:53;;;;;;;8.63;4.85;;;;;;;36.43;30.25;100572.97;4974532;28;20122;-68
2021/07/13 10:58:30;;;;;;;14.38;5.07;;;;;;;36.53;29.94;100582.06;4951685;28;20496;-68
2021/07/13 11:01:07;;;;;;;10.35;4.93;;;;;;;36.65;29.71;100575.41;4969593;28;20109;-68
2021/07/13 11:04:04;;;;;;;10.73;5.65;;;;;;;36.80;29.45;100568.44;4972691;28;20042;-68
2021/07/13 11:06:46;;;;;;;9.95;5.13;;;;;;;36.98;29.01;100560.25;4974605;28;20407;-67
2021/07/13 11:09:33;;;;;;;8.00;4.63;;;;;;;37.15;28.82;100561.38;4954863;28;20065;-67
2021/07/13 11:12:15;;;;;;;8.90;4.60;;;;;;;37.27;28.60;100555.53;4970850;28;20055;-68
2021/07/13 11:14:51;;;;;;;12.75;5.93;;;;;;;37.24;28.57;100563.22;4976006;28;20576;-67
2021/07/13 11:17:23;;;;;;;8.95;5.05;;;;;;;37.42;28.34;100558.59;4976055;28;20724;-68
2021/07/13 11:19:51;;;;;;;8.73;4.85;;;;;;;37.65;28.32;100567.34;4973116;28;20040;-68
2021/07/13 11:22:20;;;;;;;8.88;4.68;;;;;;;37.86;27.83;100557.78;4974166;28;20055;-67
2021/07/13 11:24:49;;;;;;;9.00;4.70;;;;;;;37.90;27.88;100558.31;4973431;28;20125;-68
2021/07/13 11:27:20;;;;;;;7.47;4.22;;;;;;;38.01;27.97;100548.97;4968959;28;20034;-68
2021/07/13 11:29:53;;;;;;;9.50;5.13;;;;;;;37.89;27.85;100551.94;4974913;28;20554;-68
2021/07/13 11:32:20;;;;;;;9.73;4.95;;;;;;;38.14;27.64;100557.69;4966766;28;20035;-68
2021/07/13 11:34:48;;;;;;;8.23;4.43;;;;;;;38.29;27.43;100550.59;4968084;28;20047;-69
2021/07/13 11:37:17;;;;;;;10.63;4.75;;;;;;;38.27;27.54;100553.50;4969442;28;20061;-68
2021/07/13 11:39:46;;;;;;;7.57;4.32;;;;;;;38.10;27.89;100559.06;4968905;28;20035;-68
2021/07/13 11:42:16;;;;;;;11.20;5.38;;;;;;;38.34;27.52;100547.34;4969384;28;20522;-68
2021/07/13 11:44:47;;;;;;;9.60;4.82;;;;;;;38.56;27.24;100545.00;4970019;28;20130;-68